Terminal Aerodrome Forecast
Issued by NWS

Home | Current Version | Previous Version | Text Only | Print | Product List | Glossary On
Versions: 1 2 3 4 5 6 7 8 9 10 11 12 13 14 15 16 17
000
FTUS42 KTBW 180843 AAB
TAFPGD
TAF AMD
KPGD 180843Z 1809/1906 VRB04KT 4SM BCFG SCT015
      TEMPO 1809/1811 1SM BR BKN015
     FM181200 17004KT P6SM FEW015 SCT250
     FM181600 25008KT P6SM SCT050 BKN250
     FM182000 25010KT P6SM VCTS SCT025CB BKN050
     FM190000 VRB05KT P6SM SCT030 BKN250=

USA.gov is the U.S. government's official web portal to all federal, state and local government web resources and services.